Terminal Aerodrome Forecast
Issued by NWS Tiyan, Guam

Home | Current Version | Previous Version | Text Only | Print | Product List | Glossary On
Versions: 1 2 3 4 5 6 7 8 9 10 11 12 13 14 15 16 17 18 19 20 21 22 23 24 25
000
FTPQ31 PGUM 022348
TAFGUM
TAF
PGUM 022348Z 0300/0406 03010G20KT P6SM -SHRA VCSH SCT020 BKN040
      OVC100
      TEMPO 0300/0304 3SM +SHRA SCT016 BKN025 OVC080
     FM030800 01012G20KT P6SM VCSH FEW018 BKN050 BKN120=

USA.gov is the U.S. government's official web portal to all federal, state and local government web resources and services.